createdAt,value
2018-04-28T00:01:16.305Z,99262.52
2018-04-28T00:03:43.906Z,99260.33
2018-04-28T00:06:11.680Z,99261.71
2018-04-28T00:08:40.136Z,99261.98
2018-04-28T00:11:07.788Z,99266.00
2018-04-28T00:13:35.466Z,99260.56
2018-04-28T00:16:07.872Z,99262.64
2018-04-28T00:18:41.595Z,99263.39
2018-04-28T00:21:12.867Z,99261.10
2018-04-28T00:23:41.437Z,99257.02
2018-04-28T00:26:09.126Z,99252.98
2018-04-28T00:28:44.528Z,99253.73
2018-04-28T00:31:23.808Z,99254.46
2018-04-28T00:33:52.408Z,99259.72
2018-04-28T00:39:17.849Z,99256.89
2018-04-28T00:41:45.593Z,99255.80
2018-04-28T00:44:13.948Z,99256.55
2018-04-28T00:46:46.156Z,99251.85
2018-04-28T00:49:13.792Z,99257.02
2018-04-28T00:51:42.364Z,99254.26
2018-04-28T00:54:22.026Z,99257.95
2018-04-28T00:57:00.311Z,99265.91
2018-04-28T00:59:29.002Z,99264.59
2018-04-28T01:01:57.399Z,99260.60
2018-04-28T01:04:47.717Z,99261.56
2018-04-28T01:07:16.293Z,99263.71
2018-04-28T01:09:43.959Z,99263.56
2018-04-28T01:12:11.569Z,99259.53
2018-04-28T01:14:43.865Z,99259.97
2018-04-28T01:17:14.270Z,99251.77
2018-04-28T01:19:57.711Z,99259.81
2018-04-28T01:25:25.535Z,99256.70
2018-04-28T01:27:58.899Z,99259.22
2018-04-28T01:33:47.221Z,99258.34
2018-04-28T01:36:33.645Z,99256.25
2018-04-28T01:39:16.157Z,99255.27
2018-04-28T01:41:50.173Z,99260.52
2018-04-28T01:44:34.794Z,99263.08
2018-04-28T01:50:02.977Z,99275.06
2018-04-28T01:52:33.242Z,99266.92
2018-04-28T01:58:16.644Z,99275.88
2018-04-28T02:00:53.226Z,99273.16
2018-04-28T02:03:26.588Z,99275.28
2018-04-28T02:06:27.902Z,99270.80
2018-04-28T02:09:10.386Z,99275.72
2018-04-28T02:11:44.712Z,99274.97
2018-04-28T02:17:25.064Z,99278.26
2018-04-28T02:20:01.551Z,99282.18
2018-04-28T02:22:39.008Z,99278.84
2018-04-28T02:25:16.473Z,99277.27
2018-04-28T02:31:04.847Z,99273.41
2018-04-28T02:33:32.520Z,99278.48
2018-04-28T02:36:00.146Z,99277.52
2018-04-28T02:38:34.662Z,99278.92
2018-04-28T02:41:06.069Z,99278.26
2018-04-28T02:43:45.371Z,99274.80
2018-04-28T02:46:14.978Z,99278.91
2018-04-28T02:48:46.466Z,99280.80
2018-04-28T02:54:52.409Z,99284.09
2018-04-28T02:57:28.678Z,99287.66
2018-04-28T02:59:57.048Z,99289.31
2018-04-28T03:02:27.277Z,99290.28
2018-04-28T03:08:01.235Z,99298.39
2018-04-28T03:13:35.160Z,99302.26
2018-04-28T03:16:02.832Z,99302.48
2018-04-28T03:18:45.305Z,99301.33
2018-04-28T03:21:16.663Z,99306.13
2018-04-28T03:23:55.608Z,99310.05
2018-04-28T03:26:26.419Z,99305.86
2018-04-28T03:31:50.992Z,99300.86
2018-04-28T03:34:22.592Z,99304.00
2018-04-28T03:36:52.169Z,99305.48
2018-04-28T03:39:23.866Z,99311.96
2018-04-28T03:41:54.394Z,99307.05
2018-04-28T03:47:44.925Z,99309.59
2018-04-28T03:53:30.220Z,99316.72
2018-04-28T03:56:02.454Z,99321.97
2018-04-28T03:58:41.929Z,99331.16
2018-04-28T04:01:21.276Z,99329.55
2018-04-28T04:07:09.549Z,99340.55
2018-04-28T04:09:43.851Z,99343.58
2018-04-28T04:12:23.144Z,99346.70
2018-04-28T04:14:57.713Z,99356.46
2018-04-28T04:17:45.344Z,99354.42
2018-04-28T04:23:49.508Z,99353.59
2018-04-28T04:29:25.569Z,99366.13
2018-04-28T04:32:01.194Z,99369.02
2018-04-28T04:34:49.296Z,99376.14
2018-04-28T04:40:55.419Z,99387.93
2018-04-28T04:43:34.633Z,99386.28
2018-04-28T04:46:12.964Z,99394.02
2018-04-28T04:48:44.321Z,99388.95
2018-04-28T04:51:23.925Z,99391.48
2018-04-28T04:53:58.238Z,99389.83
2018-04-28T04:59:45.355Z,99395.66
2018-04-28T05:02:22.888Z,99403.23
2018-04-28T05:08:09.453Z,99397.86
2018-04-28T05:10:45.901Z,99405.05
2018-04-28T05:16:49.035Z,99408.19
2018-04-28T05:22:47.045Z,99400.84
2018-04-28T05:25:25.440Z,99404.38
2018-04-28T05:28:04.821Z,99412.64
2018-04-28T05:30:45.231Z,99401.97
2018-04-28T05:33:24.772Z,99407.27
2018-04-28T05:39:08.860Z,99408.61
2018-04-28T05:41:47.111Z,99402.40
2018-04-28T05:44:23.580Z,99407.68
2018-04-28T05:47:14.665Z,99408.15
2018-04-28T05:49:49.004Z,99410.81
2018-04-28T05:52:40.248Z,99405.56
2018-04-28T05:58:25.673Z,99407.30
2018-04-28T06:04:01.113Z,99411.48
2018-04-28T06:06:38.866Z,99413.34
2018-04-28T06:12:29.204Z,99408.45
2018-04-28T06:15:18.676Z,99411.29
2018-04-28T06:17:58.213Z,99405.58
2018-04-28T06:20:34.639Z,99412.23
2018-04-28T06:23:02.304Z,99420.08
2018-04-28T06:25:30.037Z,99419.73
2018-04-28T06:27:57.828Z,99415.45
2018-04-28T06:30:25.457Z,99416.20
2018-04-28T06:32:53.290Z,99420.84
2018-04-28T06:35:20.988Z,99409.64
2018-04-28T06:37:48.827Z,99418.12
2018-04-28T06:40:16.435Z,99411.88
2018-04-28T06:42:44.072Z,99427.31
2018-04-28T06:45:11.684Z,99417.73
2018-04-28T06:47:39.600Z,99417.27
2018-04-28T06:50:07.380Z,99418.81
2018-04-28T06:52:34.958Z,99413.80
2018-04-28T06:55:02.552Z,99418.55
2018-04-28T06:57:30.157Z,99413.69
2018-04-28T06:59:57.852Z,99418.56
2018-04-28T07:02:25.483Z,99419.73
2018-04-28T07:04:53.123Z,99428.80
2018-04-28T07:07:20.736Z,99427.15
2018-04-28T07:09:48.316Z,99424.38
2018-04-28T07:12:16.186Z,99430.09
2018-04-28T07:14:43.802Z,99426.10
2018-04-28T07:17:11.429Z,99424.25
2018-04-28T07:19:39.239Z,99423.54
2018-04-28T07:22:06.852Z,99421.34
2018-04-28T07:24:34.673Z,99427.80
2018-04-28T07:27:02.296Z,99427.09
2018-04-28T07:29:29.905Z,99422.13
2018-04-28T07:31:57.727Z,99429.13
2018-04-28T07:34:25.377Z,99428.95
2018-04-28T07:36:53.048Z,99428.84
2018-04-28T07:39:20.666Z,99434.02
2018-04-28T07:41:48.499Z,99439.45
2018-04-28T07:44:16.113Z,99440.19
2018-04-28T07:46:43.937Z,99438.52
2018-04-28T07:49:11.585Z,99442.80
2018-04-28T07:51:39.167Z,99434.27
2018-04-28T07:54:06.786Z,99437.31
2018-04-28T07:56:34.488Z,99437.27
2018-04-28T07:59:02.049Z,99432.49
2018-04-28T08:01:29.719Z,99434.98
2018-04-28T08:03:57.564Z,99432.09
2018-04-28T08:06:25.189Z,99435.86
2018-04-28T08:08:53.000Z,99428.31
2018-04-28T08:11:20.597Z,99431.78
2018-04-28T08:13:48.281Z,99429.56
2018-04-28T08:16:15.887Z,99423.49
2018-04-28T08:18:43.500Z,99425.03
2018-04-28T08:21:11.542Z,99430.08
2018-04-28T08:23:39.514Z,99424.59
2018-04-28T08:26:07.180Z,99434.98
2018-04-28T08:28:35.049Z,99437.84
2018-04-28T08:31:02.673Z,99442.63
2018-04-28T08:33:30.280Z,99439.86
2018-04-28T08:35:57.994Z,99432.64
2018-04-28T08:38:25.671Z,99433.89
2018-04-28T08:40:53.306Z,99432.11
2018-04-28T08:43:21.159Z,99423.61
2018-04-28T08:45:48.814Z,99424.63
2018-04-28T08:48:21.210Z,99431.19
2018-04-28T08:50:48.848Z,99426.25
2018-04-28T08:53:16.491Z,99420.80
2018-04-28T08:55:44.132Z,99428.44
2018-04-28T08:58:11.769Z,99424.27
2018-04-28T09:03:41.368Z,99419.99
2018-04-28T09:06:08.954Z,99420.67
2018-04-28T09:08:36.533Z,99423.95
2018-04-28T09:11:04.106Z,99416.43
2018-04-28T09:13:31.910Z,99415.66
2018-04-28T09:15:59.468Z,99417.65
2018-04-28T09:18:27.246Z,99420.17
2018-04-28T09:20:54.834Z,99410.02
2018-04-28T09:23:22.405Z,99411.02
2018-04-28T09:25:50.029Z,99404.29
2018-04-28T09:28:17.588Z,99408.94
2018-04-28T09:30:45.309Z,99399.91
2018-04-28T09:33:12.877Z,99402.59
2018-04-28T09:35:40.446Z,99404.50
2018-04-28T09:38:08.260Z,99399.67
2018-04-28T09:40:36.012Z,99394.65
2018-04-28T09:43:03.831Z,99398.47
2018-04-28T09:45:31.385Z,99387.66
2018-04-28T09:47:58.964Z,99387.05
2018-04-28T09:50:26.588Z,99392.40
2018-04-28T09:52:54.152Z,99393.68
2018-04-28T09:55:21.720Z,99388.58
2018-04-28T09:58:01.377Z,99389.02
2018-04-28T10:00:30.617Z,99382.02
2018-04-28T10:02:58.250Z,99387.55
2018-04-28T10:05:25.793Z,99383.54
2018-04-28T10:07:53.359Z,99383.26
2018-04-28T10:10:21.173Z,99385.42
2018-04-28T10:12:48.781Z,99384.58
2018-04-28T10:15:16.493Z,99380.12
2018-04-28T10:17:44.207Z,99370.27
2018-04-28T10:20:11.784Z,99365.06
2018-04-28T10:22:39.372Z,99368.31
2018-04-28T10:25:06.914Z,99369.77
2018-04-28T10:27:34.528Z,99367.81
2018-04-28T10:30:02.096Z,99365.05
2018-04-28T10:32:29.680Z,99364.92
2018-04-28T10:34:57.243Z,99362.48
2018-04-28T10:37:24.809Z,99353.69
2018-04-28T10:39:52.433Z,99355.59
2018-04-28T10:42:20.207Z,99351.41
2018-04-28T10:44:47.776Z,99347.62
2018-04-28T10:47:15.322Z,99346.73
2018-04-28T10:49:43.065Z,99338.11
2018-04-28T10:52:10.689Z,99346.47
2018-04-28T10:54:38.497Z,99348.03
2018-04-28T10:57:06.049Z,99343.45
2018-04-28T10:59:33.835Z,99342.48
2018-04-28T11:02:01.389Z,99344.32
2018-04-28T11:04:28.996Z,99337.64
2018-04-28T11:06:56.570Z,99340.31
2018-04-28T11:09:24.305Z,99339.59
2018-04-28T11:11:51.880Z,99340.48
2018-04-28T11:14:19.447Z,99333.89
2018-04-28T11:16:47.073Z,99337.81
2018-04-28T11:19:14.633Z,99338.92
2018-04-28T11:21:42.396Z,99342.99
2018-04-28T11:24:10.214Z,99331.16
2018-04-28T11:26:37.945Z,99331.57
2018-04-28T11:29:05.561Z,99329.14
2018-04-28T11:31:33.116Z,99325.11
2018-04-28T11:34:00.889Z,99325.98
2018-04-28T11:36:28.460Z,99316.85
2018-04-28T11:38:56.831Z,99314.48
2018-04-28T11:41:24.644Z,99323.03
2018-04-28T11:43:52.189Z,99309.81
2018-04-28T11:46:19.767Z,99316.79
2018-04-28T11:48:47.598Z,99309.15
2018-04-28T11:51:15.163Z,99302.39
2018-04-28T11:53:42.780Z,99304.97
2018-04-28T11:56:10.553Z,99306.47
2018-04-28T11:58:38.117Z,99294.28
2018-04-28T12:01:05.698Z,99290.78
2018-04-28T12:03:33.270Z,99287.27
2018-04-28T12:06:00.877Z,99277.20
2018-04-28T12:08:28.627Z,99287.47
2018-04-28T12:10:56.189Z,99271.99
2018-04-28T12:13:23.757Z,99280.50
2018-04-28T12:15:51.481Z,99266.13
2018-04-28T12:18:19.104Z,99262.30
2018-04-28T12:20:46.933Z,99260.50
2018-04-28T12:23:14.496Z,99256.63
2018-04-28T12:25:42.247Z,99260.95
2018-04-28T12:28:09.804Z,99253.59
2018-04-28T12:30:37.532Z,99253.39
2018-04-28T12:33:05.097Z,99251.88
2018-04-28T12:35:32.652Z,99253.13
2018-04-28T12:38:00.465Z,99243.64
2018-04-28T12:40:28.033Z,99248.51
2018-04-28T12:42:55.825Z,99241.70
2018-04-28T12:45:23.417Z,99238.83
2018-04-28T12:47:50.993Z,99239.47
2018-04-28T12:50:18.751Z,99240.18
2018-04-28T12:52:46.309Z,99234.39
2018-04-28T12:55:14.153Z,99234.74
2018-04-28T12:57:41.713Z,99233.28
2018-04-28T13:00:09.523Z,99226.30
2018-04-28T13:02:37.134Z,99231.92
2018-04-28T13:05:04.725Z,99227.26
2018-04-28T13:07:32.355Z,99224.73
2018-04-28T13:09:59.935Z,99229.03
2018-04-28T13:12:27.505Z,99228.96
2018-04-28T13:14:55.144Z,99228.75
2018-04-28T13:17:22.958Z,99230.28
2018-04-28T13:19:50.756Z,99225.66
2018-04-28T13:22:18.375Z,99228.71
2018-04-28T13:24:45.949Z,99229.47
2018-04-28T13:27:13.630Z,99234.37
2018-04-28T13:29:41.204Z,99224.16
2018-04-28T13:32:09.041Z,99217.38
2018-04-28T13:34:36.669Z,99215.94
2018-04-28T13:37:04.493Z,99220.92
2018-04-28T13:39:32.081Z,99203.74
2018-04-28T13:41:59.802Z,99220.77
2018-04-28T13:44:27.597Z,99215.67
2018-04-28T13:46:55.369Z,99218.69
2018-04-28T13:49:22.982Z,99214.75
2018-04-28T13:51:50.549Z,99210.27
2018-04-28T13:54:18.116Z,99213.34
2018-04-28T13:56:45.727Z,99213.05
2018-04-28T13:59:13.335Z,99210.65
2018-04-28T14:01:40.888Z,99208.30
2018-04-28T14:04:08.693Z,99200.72
2018-04-28T14:06:36.281Z,99200.26
2018-04-28T14:09:04.230Z,99190.51
2018-04-28T14:11:32.050Z,99199.23
2018-04-28T14:13:59.618Z,99196.64
2018-04-28T14:16:27.368Z,99199.63
2018-04-28T14:18:55.112Z,99201.72
2018-04-28T14:21:22.925Z,99196.67
2018-04-28T14:23:50.741Z,99202.36
2018-04-28T14:26:18.560Z,99202.65
2018-04-28T14:28:46.292Z,99193.59
2018-04-28T14:31:14.089Z,99200.17
2018-04-28T14:33:41.915Z,99200.39
2018-04-28T14:36:09.467Z,99199.66
2018-04-28T14:38:37.037Z,99196.72
2018-04-28T14:41:04.607Z,99201.89
2018-04-28T14:43:32.168Z,99202.40
2018-04-28T14:46:00.006Z,99194.67
2018-04-28T14:48:27.699Z,99195.09
2018-04-28T14:50:55.332Z,99193.16
2018-04-28T14:53:22.890Z,99188.86
2018-04-28T14:55:50.455Z,99186.48
2018-04-28T14:58:18.196Z,99184.15
2018-04-28T15:00:46.014Z,99190.51
2018-04-28T15:03:13.791Z,99194.56
2018-04-28T15:05:41.551Z,99189.64
2018-04-28T15:08:09.120Z,99186.30
2018-04-28T15:10:36.868Z,99187.68
2018-04-28T15:13:04.424Z,99192.32
2018-04-28T15:15:32.223Z,99193.27
2018-04-28T15:17:59.941Z,99181.92
2018-04-28T15:20:27.659Z,99184.38
2018-04-28T15:22:55.491Z,99180.63
2018-04-28T15:25:23.072Z,99184.02
2018-04-28T15:27:50.895Z,99174.46
2018-04-28T15:30:18.470Z,99169.87
2018-04-28T15:32:46.024Z,99177.09
2018-04-28T15:35:13.593Z,99182.90
2018-04-28T15:37:41.162Z,99176.16
2018-04-28T15:40:08.781Z,99172.41
2018-04-28T15:42:36.524Z,99171.91
2018-04-28T15:45:04.846Z,99172.09
2018-04-28T15:47:32.410Z,99162.98
2018-04-28T15:50:00.015Z,99160.27
2018-04-28T15:52:27.582Z,99159.89
2018-04-28T15:54:55.148Z,99154.86
2018-04-28T15:57:22.801Z,99157.06
2018-04-28T15:59:50.554Z,99153.33
2018-04-28T16:02:18.373Z,99158.23
2018-04-28T16:04:45.948Z,99147.44
2018-04-28T16:07:13.517Z,99150.88
2018-04-28T16:09:41.127Z,99145.50
2018-04-28T16:12:08.693Z,99149.93
2018-04-28T16:14:36.271Z,99144.62
2018-04-28T16:17:03.856Z,99148.16
2018-04-28T16:19:31.430Z,99153.28
2018-04-28T16:21:59.052Z,99152.55
2018-04-28T16:24:26.628Z,99154.87
2018-04-28T16:26:54.203Z,99149.18
2018-04-28T16:29:21.780Z,99154.92
2018-04-28T16:31:49.345Z,99158.95
2018-04-28T16:34:16.973Z,99155.59
2018-04-28T16:36:44.621Z,99158.86
2018-04-28T16:39:12.446Z,99165.33
2018-04-28T16:41:40.076Z,99171.14
2018-04-28T16:44:07.876Z,99165.36
2018-04-28T16:46:35.895Z,99173.55
2018-04-28T16:49:03.713Z,99178.20
2018-04-28T16:51:31.272Z,99181.81
2018-04-28T16:53:58.899Z,99185.14
2018-04-28T16:56:26.462Z,99184.25
2018-04-28T16:58:54.286Z,99185.96
2018-04-28T17:01:22.104Z,99190.06
2018-04-28T17:03:49.656Z,99190.63
2018-04-28T17:06:17.272Z,99185.34
2018-04-28T17:08:44.824Z,99196.81
2018-04-28T17:11:13.265Z,99199.06
2018-04-28T17:13:40.833Z,99203.39
2018-04-28T17:16:08.398Z,99204.61
2018-04-28T17:18:35.989Z,99208.93
2018-04-28T17:21:03.563Z,99214.09
2018-04-28T17:23:31.172Z,99218.12
2018-04-28T17:25:58.765Z,99218.84
2018-04-28T17:28:26.504Z,99224.28
2018-04-28T17:30:54.064Z,99219.81
2018-04-28T17:33:21.825Z,99230.01
2018-04-28T17:35:49.865Z,99226.86
2018-04-28T17:38:17.449Z,99220.94
2018-04-28T17:40:45.021Z,99227.88
2018-04-28T17:43:12.598Z,99228.05
2018-04-28T17:45:40.182Z,99236.30
2018-04-28T17:48:08.050Z,99231.81
2018-04-28T17:50:35.868Z,99232.82
2018-04-28T17:53:03.690Z,99240.77
2018-04-28T17:55:31.317Z,99235.77
2018-04-28T17:57:58.928Z,99239.33
2018-04-28T18:00:26.608Z,99253.18
2018-04-28T18:02:54.268Z,99256.21
2018-04-28T18:05:21.896Z,99264.84
2018-04-28T18:07:49.533Z,99267.67
2018-04-28T18:10:17.095Z,99258.69
2018-04-28T18:12:44.700Z,99261.77
2018-04-28T18:15:12.322Z,99269.10
2018-04-28T18:17:39.964Z,99279.75
2018-04-28T18:20:07.531Z,99286.14
2018-04-28T18:22:35.468Z,99291.44
2018-04-28T18:25:03.097Z,99280.72
2018-04-28T18:27:30.653Z,99283.95
2018-04-28T18:30:03.148Z,99275.55
2018-04-28T18:32:30.716Z,99278.24
2018-04-28T18:34:58.359Z,99281.75
2018-04-28T18:37:26.009Z,99284.83
2018-04-28T18:39:53.705Z,99262.31
2018-04-28T18:42:21.317Z,99285.88
2018-04-28T18:44:48.861Z,99289.92
2018-04-28T18:47:16.416Z,99289.38
2018-04-28T18:49:44.032Z,99292.48
2018-04-28T18:52:11.603Z,99293.06
2018-04-28T18:54:39.183Z,99296.14
2018-04-28T18:57:06.975Z,99299.66
2018-04-28T18:59:34.532Z,99294.70
2018-04-28T19:02:02.155Z,99295.47
2018-04-28T19:04:29.787Z,99297.17
2018-04-28T19:06:57.359Z,99299.09
2018-04-28T19:09:24.932Z,99306.69
2018-04-28T19:11:52.682Z,99306.19
2018-04-28T19:14:20.500Z,99305.41
2018-04-28T19:16:48.126Z,99304.77
2018-04-28T19:19:15.918Z,99306.96
2018-04-28T19:21:43.653Z,99305.19
2018-04-28T19:24:12.863Z,99307.75
2018-04-28T19:26:40.537Z,99313.68
2018-04-28T19:29:08.105Z,99317.19
2018-04-28T19:31:35.664Z,99311.91
2018-04-28T19:34:03.450Z,99314.43
2018-04-28T19:36:31.008Z,99309.53
2018-04-28T19:38:58.786Z,99308.78
2018-04-28T19:41:26.417Z,99317.67
2018-04-28T19:43:54.017Z,99311.63
2018-04-28T19:46:21.588Z,99312.05
2018-04-28T19:48:49.359Z,99310.26
2018-04-28T19:51:16.962Z,99315.31
2018-04-28T19:53:44.517Z,99314.44
2018-04-28T19:56:12.145Z,99303.22
2018-04-28T19:58:39.931Z,99313.63
2018-04-28T20:01:07.507Z,99316.75
2018-04-28T20:03:35.084Z,99318.63
2018-04-28T20:06:02.884Z,99313.05
2018-04-28T20:08:30.504Z,99311.75
2018-04-28T20:10:58.073Z,99306.24
2018-04-28T20:13:25.693Z,99308.77
2018-04-28T20:15:53.254Z,99312.07
2018-04-28T20:18:21.077Z,99309.34
2018-04-28T20:20:48.649Z,99315.16
2018-04-28T20:23:28.353Z,99308.34
2018-04-28T20:25:56.085Z,99316.61
2018-04-28T20:28:23.890Z,99320.39
2018-04-28T20:30:51.512Z,99317.45
2018-04-28T20:33:19.120Z,99295.92
2018-04-28T20:35:46.690Z,99325.33
2018-04-28T20:38:14.282Z,99323.34
2018-04-28T20:40:41.846Z,99318.77
2018-04-28T20:43:09.558Z,99327.75
2018-04-28T20:45:37.316Z,99327.91
2018-04-28T20:48:04.888Z,99323.28
2018-04-28T20:50:33.254Z,99327.88
2018-04-28T20:53:00.866Z,99333.62
2018-04-28T20:55:28.692Z,99333.15
2018-04-28T20:57:56.242Z,99328.13
2018-04-28T21:00:23.792Z,99336.39
2018-04-28T21:02:51.450Z,99331.11
2018-04-28T21:05:19.016Z,99331.47
2018-04-28T21:07:46.624Z,99339.37
2018-04-28T21:10:14.190Z,99336.87
2018-04-28T21:12:41.747Z,99336.80
2018-04-28T21:15:09.316Z,99339.48
2018-04-28T21:17:36.873Z,99336.30
2018-04-28T21:20:04.551Z,99338.89
2018-04-28T21:22:32.108Z,99346.06
2018-04-28T21:24:59.906Z,99343.86
2018-04-28T21:27:27.516Z,99339.66
2018-04-28T21:29:55.242Z,99335.52
2018-04-28T21:32:22.952Z,99336.69
2018-04-28T21:34:50.674Z,99337.86
2018-04-28T21:37:18.230Z,99330.68
2018-04-28T21:39:45.804Z,99328.83
2018-04-28T21:42:13.363Z,99324.57
2018-04-28T21:44:41.085Z,99324.95
2018-04-28T21:47:08.645Z,99323.70
2018-04-28T21:49:36.205Z,99325.43
2018-04-28T21:52:03.856Z,99326.33
2018-04-28T21:54:31.823Z,99329.20
2018-04-28T21:56:59.460Z,99327.16
2018-04-28T21:59:27.362Z,99322.42
2018-04-28T22:01:54.944Z,99327.70
2018-04-28T22:04:22.518Z,99318.66
2018-04-28T22:06:50.315Z,99320.73
2018-04-28T22:09:18.133Z,99321.36
2018-04-28T22:11:45.850Z,99322.78
2018-04-28T22:14:13.541Z,99321.53
2018-04-28T22:16:41.261Z,99319.28
2018-04-28T22:19:08.823Z,99317.75
2018-04-28T22:21:36.445Z,99317.64
2018-04-28T22:24:04.035Z,99318.41
2018-04-28T22:26:31.622Z,99324.03
2018-04-28T22:28:59.379Z,99319.95
2018-04-28T22:31:27.029Z,99323.86
2018-04-28T22:33:54.680Z,99319.49
2018-04-28T22:36:22.417Z,99317.39
2018-04-28T22:38:49.981Z,99316.59
2018-04-28T22:41:17.770Z,99319.12
2018-04-28T22:43:45.325Z,99318.33
2018-04-28T22:46:12.961Z,99313.34
2018-04-28T22:48:40.508Z,99312.00
2018-04-28T22:51:08.055Z,99305.77
2018-04-28T22:53:35.860Z,99302.91
2018-04-28T22:56:03.457Z,99300.97
2018-04-28T22:58:31.186Z,99296.95
2018-04-28T23:00:58.740Z,99293.18
2018-04-28T23:03:26.311Z,99295.84
2018-04-28T23:05:54.150Z,99294.53
2018-04-28T23:08:21.702Z,99279.92
2018-04-28T23:10:49.279Z,99282.24
2018-04-28T23:13:18.745Z,99285.53
2018-04-28T23:15:46.422Z,99283.48
2018-04-28T23:18:13.980Z,99286.91
2018-04-28T23:20:41.771Z,99284.22
2018-04-28T23:23:09.361Z,99287.09
2018-04-28T23:25:36.908Z,99263.28
2018-04-28T23:28:04.533Z,99290.06
2018-04-28T23:30:32.093Z,99289.34
2018-04-28T23:32:59.645Z,99279.98
2018-04-28T23:35:27.208Z,99285.91
2018-04-28T23:37:54.746Z,99276.29
2018-04-28T23:40:22.357Z,99282.86
2018-04-28T23:42:50.095Z,99274.22
2018-04-28T23:45:17.648Z,99279.72
2018-04-28T23:47:45.513Z,99274.80
2018-04-28T23:50:13.083Z,99274.97
2018-04-28T23:52:40.714Z,99272.17
2018-04-28T23:55:08.280Z,99271.76
2018-04-28T23:57:36.033Z,99269.40
